sensor_id;sensor_type;location;lat;lon;timestamp;pressure;altitude;pressure_sealevel;temperature;humidity
33506;BME280;19843;51.040;13.782;2023-03-03T00:01:22;100895.72;;;0.46;98.97
33506;BME280;19843;51.040;13.782;2023-03-03T00:03:50;100894.03;;;0.44;99.33
33506;BME280;19843;51.040;13.782;2023-03-03T00:06:19;100894.03;;;0.44;100.00
33506;BME280;19843;51.040;13.782;2023-03-03T00:08:46;100900.16;;;0.46;100.00
33506;BME280;19843;51.040;13.782;2023-03-03T00:11:14;100899.84;;;0.62;100.00
33506;BME280;19843;51.040;13.782;2023-03-03T00:13:46;100899.00;;;0.59;100.00
33506;BME280;19843;51.040;13.782;2023-03-03T00:16:19;100902.47;;;0.62;100.00
33506;BME280;19843;51.040;13.782;2023-03-03T00:18:48;100899.31;;;0.42;100.00
33506;BME280;19843;51.040;13.782;2023-03-03T00:21:25;100893.00;;;0.51;100.00
33506;BME280;19843;51.040;13.782;2023-03-03T00:24:01;100895.72;;;0.46;100.00
33506;BME280;19843;51.040;13.782;2023-03-03T00:26:34;100901.69;;;0.57;100.00
33506;BME280;19843;51.040;13.782;2023-03-03T00:29:23;100899.75;;;0.67;100.00
33506;BME280;19843;51.040;13.782;2023-03-03T00:31:53;100908.69;;;0.58;100.00
33506;BME280;19843;51.040;13.782;2023-03-03T00:34:24;100905.13;;;0.61;100.00
33506;BME280;19843;51.040;13.782;2023-03-03T00:36:53;100909.44;;;0.68;100.00
33506;BME280;19843;51.040;13.782;2023-03-03T00:39:28;100911.41;;;0.55;100.00
33506;BME280;19843;51.040;13.782;2023-03-03T00:41:57;100915.78;;;0.56;100.00
33506;BME280;19843;51.040;13.782;2023-03-03T00:44:37;100916.59;;;0.61;100.00
33506;BME280;19843;51.040;13.782;2023-03-03T00:47:27;100907.75;;;0.62;100.00
33506;BME280;19843;51.040;13.782;2023-03-03T00:50:24;100915.84;;;0.52;100.00
33506;BME280;19843;51.040;13.782;2023-03-03T00:52:58;100906.47;;;0.35;100.00
33506;BME280;19843;51.040;13.782;2023-03-03T00:55:27;100911.59;;;0.43;100.00
33506;BME280;19843;51.040;13.782;2023-03-03T00:57:55;100914.28;;;0.41;100.00
33506;BME280;19843;51.040;13.782;2023-03-03T01:00:24;100913.66;;;0.26;100.00
33506;BME280;19843;51.040;13.782;2023-03-03T01:02:51;100914.31;;;0.38;100.00
33506;BME280;19843;51.040;13.782;2023-03-03T01:05:20;100921.44;;;0.33;100.00
33506;BME280;19843;51.040;13.782;2023-03-03T01:07:47;100916.31;;;0.26;100.00
33506;BME280;19843;51.040;13.782;2023-03-03T01:10:15;100917.31;;;0.18;100.00
33506;BME280;19843;51.040;13.782;2023-03-03T01:12:42;100920.81;;;0.17;100.00
33506;BME280;19843;51.040;13.782;2023-03-03T01:15:12;100915.84;;;-0.01;100.00
33506;BME280;19843;51.040;13.782;2023-03-03T01:17:41;100920.09;;;0.09;100.00
33506;BME280;19843;51.040;13.782;2023-03-03T01:20:12;100922.72;;;0.09;100.00
33506;BME280;19843;51.040;13.782;2023-03-03T01:22:40;100931.38;;;0.17;100.00
33506;BME280;19843;51.040;13.782;2023-03-03T01:25:09;100921.75;;;0.15;100.00
33506;BME280;19843;51.040;13.782;2023-03-03T01:27:36;100927.81;;;0.22;100.00
33506;BME280;19843;51.040;13.782;2023-03-03T01:30:05;100916.25;;;0.29;100.00
33506;BME280;19843;51.040;13.782;2023-03-03T01:32:33;100919.88;;;0.23;100.00
33506;BME280;19843;51.040;13.782;2023-03-03T01:35:02;100926.09;;;0.17;100.00
33506;BME280;19843;51.040;13.782;2023-03-03T01:37:30;100912.88;;;0.20;100.00
33506;BME280;19843;51.040;13.782;2023-03-03T01:39:57;100916.22;;;0.30;100.00
33506;BME280;19843;51.040;13.782;2023-03-03T01:42:25;100924.19;;;0.27;100.00
33506;BME280;19843;51.040;13.782;2023-03-03T01:45:18;100922.47;;;0.25;100.00
33506;BME280;19843;51.040;13.782;2023-03-03T01:47:53;100920.03;;;0.12;100.00
33506;BME280;19843;51.040;13.782;2023-03-03T01:50:39;100923.28;;;0.28;100.00
33506;BME280;19843;51.040;13.782;2023-03-03T01:53:12;100915.47;;;0.24;100.00
33506;BME280;19843;51.040;13.782;2023-03-03T01:55:42;100913.59;;;0.29;100.00
33506;BME280;19843;51.040;13.782;2023-03-03T01:58:14;100912.06;;;0.15;100.00
33506;BME280;19843;51.040;13.782;2023-03-03T02:00:46;100905.63;;;0.32;100.00
33506;BME280;19843;51.040;13.782;2023-03-03T02:03:15;100907.56;;;0.22;100.00
33506;BME280;19843;51.040;13.782;2023-03-03T02:05:45;100901.63;;;0.09;100.00
33506;BME280;19843;51.040;13.782;2023-03-03T02:08:15;100908.72;;;0.04;100.00
33506;BME280;19843;51.040;13.782;2023-03-03T02:10:45;100899.16;;;-0.02;100.00
33506;BME280;19843;51.040;13.782;2023-03-03T02:13:13;100901.06;;;-0.11;100.00
33506;BME280;19843;51.040;13.782;2023-03-03T02:15:41;100905.50;;;-0.15;100.00
33506;BME280;19843;51.040;13.782;2023-03-03T02:18:11;100897.47;;;-0.06;100.00
33506;BME280;19843;51.040;13.782;2023-03-03T02:20:49;100908.91;;;-0.07;100.00
33506;BME280;19843;51.040;13.782;2023-03-03T02:23:22;100914.25;;;-0.11;100.00
33506;BME280;19843;51.040;13.782;2023-03-03T02:26:05;100912.34;;;-0.03;100.00
33506;BME280;19843;51.040;13.782;2023-03-03T02:28:35;100915.75;;;0.05;100.00
33506;BME280;19843;51.040;13.782;2023-03-03T02:31:06;100902.72;;;-0.04;100.00
33506;BME280;19843;51.040;13.782;2023-03-03T02:33:36;100915.75;;;0.05;100.00
33506;BME280;19843;51.040;13.782;2023-03-03T02:36:03;100907.06;;;0.00;100.00
33506;BME280;19843;51.040;13.782;2023-03-03T02:38:32;100906.44;;;-0.21;100.00
33506;BME280;19843;51.040;13.782;2023-03-03T02:41:08;100913.34;;;-0.12;100.00
33506;BME280;19843;51.040;13.782;2023-03-03T02:43:41;100912.63;;;-0.20;100.00
33506;BME280;19843;51.040;13.782;2023-03-03T02:46:09;100903.66;;;-0.10;100.00
33506;BME280;19843;51.040;13.782;2023-03-03T02:48:37;100909.09;;;-0.21;100.00
33506;BME280;19843;51.040;13.782;2023-03-03T02:51:04;100915.34;;;-0.26;100.00
33506;BME280;19843;51.040;13.782;2023-03-03T02:53:32;100911.50;;;-0.05;100.00
33506;BME280;19843;51.040;13.782;2023-03-03T02:55:59;100905.56;;;-0.19;100.00
33506;BME280;19843;51.040;13.782;2023-03-03T02:58:28;100908.88;;;-0.05;100.00
33506;BME280;19843;51.040;13.782;2023-03-03T03:00:55;100900.44;;;-0.29;100.00
33506;BME280;19843;51.040;13.782;2023-03-03T03:03:23;100908.13;;;-0.13;100.00
33506;BME280;19843;51.040;13.782;2023-03-03T03:05:50;100914.34;;;-0.19;100.00
33506;BME280;19843;51.040;13.782;2023-03-03T03:08:18;100927.59;;;-0.22;100.00
33506;BME280;19843;51.040;13.782;2023-03-03T03:10:45;100922.91;;;-0.05;100.00
33506;BME280;19843;51.040;13.782;2023-03-03T03:13:13;100914.50;;;-0.30;100.00
33506;BME280;19843;51.040;13.782;2023-03-03T03:15:44;100923.31;;;-0.32;100.00
33506;BME280;19843;51.040;13.782;2023-03-03T03:18:11;100918.88;;;-0.29;100.00
33506;BME280;19843;51.040;13.782;2023-03-03T03:20:39;100925.81;;;-0.20;100.00
33506;BME280;19843;51.040;13.782;2023-03-03T03:23:07;100923.31;;;-0.31;100.00
33506;BME280;19843;51.040;13.782;2023-03-03T03:25:35;100924.16;;;-0.30;100.00
33506;BME280;19843;51.040;13.782;2023-03-03T03:28:07;100929.63;;;-0.44;100.00
33506;BME280;19843;51.040;13.782;2023-03-03T03:30:35;100920.47;;;-0.17;100.00
33506;BME280;19843;51.040;13.782;2023-03-03T03:33:04;100929.31;;;-0.19;100.00
33506;BME280;19843;51.040;13.782;2023-03-03T03:35:32;100931.28;;;-0.37;100.00
33506;BME280;19843;51.040;13.782;2023-03-03T03:38:00;100924.22;;;-0.33;100.00
33506;BME280;19843;51.040;13.782;2023-03-03T03:40:28;100921.59;;;-0.33;100.00
33506;BME280;19843;51.040;13.782;2023-03-03T03:42:55;100913.72;;;-0.36;100.00
33506;BME280;19843;51.040;13.782;2023-03-03T03:45:22;100918.84;;;-0.26;100.00
33506;BME280;19843;51.040;13.782;2023-03-03T03:47:50;100907.56;;;-0.34;100.00
33506;BME280;19843;51.040;13.782;2023-03-03T03:50:19;100911.00;;;-0.30;100.00
33506;BME280;19843;51.040;13.782;2023-03-03T03:52:46;100912.75;;;-0.29;100.00
33506;BME280;19843;51.040;13.782;2023-03-03T03:55:14;100923.38;;;-0.35;100.00
33506;BME280;19843;51.040;13.782;2023-03-03T03:57:41;100927.72;;;-0.34;100.00
33506;BME280;19843;51.040;13.782;2023-03-03T04:00:10;100923.19;;;-0.22;100.00
33506;BME280;19843;51.040;13.782;2023-03-03T04:02:38;100940.06;;;-0.36;100.00
33506;BME280;19843;51.040;13.782;2023-03-03T04:05:06;100937.50;;;-0.41;100.00
33506;BME280;19843;51.040;13.782;2023-03-03T04:07:35;100931.19;;;-0.29;100.00
33506;BME280;19843;51.040;13.782;2023-03-03T04:10:02;100938.06;;;-0.19;100.00
33506;BME280;19843;51.040;13.782;2023-03-03T04:12:30;100939.06;;;-0.28;100.00
33506;BME280;19843;51.040;13.782;2023-03-03T04:15:04;100943.41;;;-0.22;100.00
33506;BME280;19843;51.040;13.782;2023-03-03T04:17:32;100958.50;;;-0.35;100.00
33506;BME280;19843;51.040;13.782;2023-03-03T04:19:59;100955.06;;;-0.40;100.00
33506;BME280;19843;51.040;13.782;2023-03-03T04:22:27;100948.94;;;-0.42;100.00
33506;BME280;19843;51.040;13.782;2023-03-03T04:24:59;100939.13;;;-0.32;100.00
33506;BME280;19843;51.040;13.782;2023-03-03T04:27:30;100938.25;;;-0.31;100.00
33506;BME280;19843;51.040;13.782;2023-03-03T04:29:57;100948.75;;;-0.28;100.00
33506;BME280;19843;51.040;13.782;2023-03-03T04:32:25;100959.59;;;-0.51;100.00
33506;BME280;19843;51.040;13.782;2023-03-03T04:34:54;100946.97;;;-0.28;100.00
33506;BME280;19843;51.040;13.782;2023-03-03T04:37:33;100953.13;;;-0.27;100.00
33506;BME280;19843;51.040;13.782;2023-03-03T04:40:03;100952.28;;;-0.29;100.00
33506;BME280;19843;51.040;13.782;2023-03-03T04:42:32;100961.25;;;-0.44;100.00
33506;BME280;19843;51.040;13.782;2023-03-03T04:44:59;100961.94;;;-0.30;100.00
33506;BME280;19843;51.040;13.782;2023-03-03T04:47:26;100965.47;;;-0.31;100.00
33506;BME280;19843;51.040;13.782;2023-03-03T04:49:54;100976.13;;;-0.38;100.00
33506;BME280;19843;51.040;13.782;2023-03-03T04:52:21;100966.25;;;-0.24;100.00
33506;BME280;19843;51.040;13.782;2023-03-03T04:54:49;100963.56;;;-0.18;100.00
33506;BME280;19843;51.040;13.782;2023-03-03T04:57:17;100960.06;;;-0.20;100.00
33506;BME280;19843;51.040;13.782;2023-03-03T04:59:45;100964.50;;;-0.24;100.00
33506;BME280;19843;51.040;13.782;2023-03-03T05:02:12;100962.50;;;-0.08;100.00
33506;BME280;19843;51.040;13.782;2023-03-03T05:04:40;100964.41;;;-0.17;99.92
33506;BME280;19843;51.040;13.782;2023-03-03T05:07:07;100963.50;;;-0.13;99.93
33506;BME280;19843;51.040;13.782;2023-03-03T05:09:35;100967.97;;;-0.22;99.94
33506;BME280;19843;51.040;13.782;2023-03-03T05:12:03;100965.34;;;-0.22;100.00
33506;BME280;19843;51.040;13.782;2023-03-03T05:14:31;100973.91;;;-0.07;100.00
33506;BME280;19843;51.040;13.782;2023-03-03T05:16:59;100968.63;;;-0.04;99.51
33506;BME280;19843;51.040;13.782;2023-03-03T05:19:26;100972.28;;;-0.14;99.83
33506;BME280;19843;51.040;13.782;2023-03-03T05:21:54;100969.47;;;-0.02;99.97
33506;BME280;19843;51.040;13.782;2023-03-03T05:24:22;100960.59;;;0.02;100.00
33506;BME280;19843;51.040;13.782;2023-03-03T05:26:50;100952.97;;;-0.16;100.00
33506;BME280;19843;51.040;13.782;2023-03-03T05:29:18;100960.00;;;-0.17;100.00
33506;BME280;19843;51.040;13.782;2023-03-03T05:31:46;100965.28;;;-0.18;100.00
33506;BME280;19843;51.040;13.782;2023-03-03T05:34:14;100975.69;;;-0.06;100.00
33506;BME280;19843;51.040;13.782;2023-03-03T05:36:42;100970.53;;;-0.15;100.00
33506;BME280;19843;51.040;13.782;2023-03-03T05:39:09;100960.03;;;-0.18;100.00
33506;BME280;19843;51.040;13.782;2023-03-03T05:41:36;100952.09;;;-0.17;100.00
33506;BME280;19843;51.040;13.782;2023-03-03T05:44:04;100963.56;;;-0.21;100.00
33506;BME280;19843;51.040;13.782;2023-03-03T05:46:31;100978.53;;;-0.23;100.00
33506;BME280;19843;51.040;13.782;2023-03-03T05:49:00;100976.72;;;-0.18;100.00
33506;BME280;19843;51.040;13.782;2023-03-03T05:51:28;100975.84;;;-0.18;100.00
33506;BME280;19843;51.040;13.782;2023-03-03T05:53:55;100975.81;;;-0.17;100.00
33506;BME280;19843;51.040;13.782;2023-03-03T05:56:23;100977.41;;;-0.05;100.00
33506;BME280;19843;51.040;13.782;2023-03-03T05:58:50;100961.59;;;-0.04;100.00
33506;BME280;19843;51.040;13.782;2023-03-03T06:01:17;100966.00;;;-0.06;100.00
33506;BME280;19843;51.040;13.782;2023-03-03T06:03:45;100966.66;;;0.10;100.00
33506;BME280;19843;51.040;13.782;2023-03-03T06:06:14;100969.47;;;-0.02;100.00
33506;BME280;19843;51.040;13.782;2023-03-03T06:08:42;100970.34;;;-0.02;100.00
33506;BME280;19843;51.040;13.782;2023-03-03T06:11:10;100959.53;;;0.15;100.00
33506;BME280;19843;51.040;13.782;2023-03-03T06:13:38;100955.41;;;-0.03;100.00
33506;BME280;19843;51.040;13.782;2023-03-03T06:16:07;100958.88;;;0.01;100.00
33506;BME280;19843;51.040;13.782;2023-03-03T06:18:34;100960.59;;;0.05;100.00
33506;BME280;19843;51.040;13.782;2023-03-03T06:21:02;100963.31;;;-0.01;100.00
33506;BME280;19843;51.040;13.782;2023-03-03T06:23:31;100967.50;;;0.14;100.00
33506;BME280;19843;51.040;13.782;2023-03-03T06:25:58;100962.00;;;0.28;100.00
33506;BME280;19843;51.040;13.782;2023-03-03T06:28:26;100973.53;;;0.20;100.00
33506;BME280;19843;51.040;13.782;2023-03-03T06:30:53;100967.22;;;0.31;100.00
33506;BME280;19843;51.040;13.782;2023-03-03T06:33:21;100969.84;;;0.31;100.00
33506;BME280;19843;51.040;13.782;2023-03-03T06:35:49;100967.22;;;0.31;100.00
33506;BME280;19843;51.040;13.782;2023-03-03T06:38:16;100981.47;;;0.17;100.00
33506;BME280;19843;51.040;13.782;2023-03-03T06:40:46;100991.25;;;0.12;100.00
33506;BME280;19843;51.040;13.782;2023-03-03T06:43:14;100991.91;;;0.27;100.00
33506;BME280;19843;51.040;13.782;2023-03-03T06:45:41;101002.91;;;-0.06;100.00
33506;BME280;19843;51.040;13.782;2023-03-03T06:48:09;101002.72;;;0.08;100.00
33506;BME280;19843;51.040;13.782;2023-03-03T06:50:36;101002.72;;;0.10;100.00
33506;BME280;19843;51.040;13.782;2023-03-03T06:53:09;101000.56;;;0.35;100.00
33506;BME280;19843;51.040;13.782;2023-03-03T06:55:37;100997.97;;;0.32;100.00
33506;BME280;19843;51.040;13.782;2023-03-03T06:58:11;100990.38;;;0.10;100.00
33506;BME280;19843;51.040;13.782;2023-03-03T07:00:41;100994.66;;;0.17;100.00
33506;BME280;19843;51.040;13.782;2023-03-03T07:03:13;101000.66;;;0.27;100.00
33506;BME280;19843;51.040;13.782;2023-03-03T07:05:41;101006.66;;;0.38;100.00
33506;BME280;19843;51.040;13.782;2023-03-03T07:08:13;101019.97;;;0.32;100.00
33506;BME280;19843;51.040;13.782;2023-03-03T07:10:42;101014.50;;;0.45;100.00
33506;BME280;19843;51.040;13.782;2023-03-03T07:13:20;101012.63;;;0.53;100.00
33506;BME280;19843;51.040;13.782;2023-03-03T07:15:48;101015.09;;;0.62;100.00
33506;BME280;19843;51.040;13.782;2023-03-03T07:18:34;101017.81;;;0.57;100.00
33506;BME280;19843;51.040;13.782;2023-03-03T07:21:14;101018.91;;;0.44;100.00
33506;BME280;19843;51.040;13.782;2023-03-03T07:23:43;101010.84;;;0.53;100.00
33506;BME280;19843;51.040;13.782;2023-03-03T07:26:14;101008.34;;;0.43;100.00
33506;BME280;19843;51.040;13.782;2023-03-03T07:28:47;101015.50;;;0.36;100.00
33506;BME280;19843;51.040;13.782;2023-03-03T07:31:26;101025.19;;;0.34;100.00
33506;BME280;19843;51.040;13.782;2023-03-03T07:33:58;101032.09;;;0.43;100.00
33506;BME280;19843;51.040;13.782;2023-03-03T07:36:28;101030.25;;;0.48;100.00
33506;BME280;19843;51.040;13.782;2023-03-03T07:38:58;101033.56;;;0.62;100.00
33506;BME280;19843;51.040;13.782;2023-03-03T07:41:27;101032.78;;;0.55;100.00
33506;BME280;19843;51.040;13.782;2023-03-03T07:44:02;101048.78;;;0.46;100.00
33506;BME280;19843;51.040;13.782;2023-03-03T07:46:35;101048.69;;;0.52;100.00
33506;BME280;19843;51.040;13.782;2023-03-03T07:49:21;101047.84;;;0.50;100.00
33506;BME280;19843;51.040;13.782;2023-03-03T07:51:52;101044.94;;;0.67;100.00
33506;BME280;19843;51.040;13.782;2023-03-03T07:54:29;101047.47;;;0.73;100.00
33506;BME280;19843;51.040;13.782;2023-03-03T07:57:01;101047.41;;;0.78;100.00
33506;BME280;19843;51.040;13.782;2023-03-03T07:59:34;101039.31;;;0.87;99.93
33506;BME280;19843;51.040;13.782;2023-03-03T08:02:08;101039.31;;;0.87;100.00
33506;BME280;19843;51.040;13.782;2023-03-03T08:04:45;101041.28;;;0.76;99.62
33506;BME280;19843;51.040;13.782;2023-03-03T08:07:17;101037.25;;;0.52;100.00
33506;BME280;19843;51.040;13.782;2023-03-03T08:09:47;101045.78;;;0.69;100.00
33506;BME280;19843;51.040;13.782;2023-03-03T08:12:37;101046.34;;;0.88;100.00
33506;BME280;19843;51.040;13.782;2023-03-03T08:15:20;101041.78;;;0.98;99.41
33506;BME280;19843;51.040;13.782;2023-03-03T08:17:49;101047.78;;;1.06;98.76
33506;BME280;19843;51.040;13.782;2023-03-03T08:20:42;101041.56;;;1.10;98.44
33506;BME280;19843;51.040;13.782;2023-03-03T08:23:11;101041.09;;;0.87;98.45
33506;BME280;19843;51.040;13.782;2023-03-03T08:25:40;101033.78;;;1.02;98.33
33506;BME280;19843;51.040;13.782;2023-03-03T08:28:08;101039.69;;;1.15;98.06
33506;BME280;19843;51.040;13.782;2023-03-03T08:30:37;101043.16;;;1.20;97.15
33506;BME280;19843;51.040;13.782;2023-03-03T08:33:05;101038.47;;;1.35;96.64
33506;BME280;19843;51.040;13.782;2023-03-03T08:35:32;101044.97;;;1.17;96.69
33506;BME280;19843;51.040;13.782;2023-03-03T08:38:00;101043.94;;;1.24;96.94
33506;BME280;19843;51.040;13.782;2023-03-03T08:40:27;101043.78;;;1.32;96.33
33506;BME280;19843;51.040;13.782;2023-03-03T08:42:55;101050.84;;;1.31;95.91
33506;BME280;19843;51.040;13.782;2023-03-03T08:45:23;101054.66;;;1.16;96.28
33506;BME280;19843;51.040;13.782;2023-03-03T08:47:52;101051.97;;;1.19;96.08
33506;BME280;19843;51.040;13.782;2023-03-03T08:50:20;101053.41;;;1.37;95.86
33506;BME280;19843;51.040;13.782;2023-03-03T08:52:48;101062.25;;;1.35;95.47
33506;BME280;19843;51.040;13.782;2023-03-03T08:55:15;101058.84;;;1.30;95.86
33506;BME280;19843;51.040;13.782;2023-03-03T08:57:43;101051.50;;;1.45;94.98
33506;BME280;19843;51.040;13.782;2023-03-03T09:00:13;101047.16;;;1.41;95.12
33506;BME280;19843;51.040;13.782;2023-03-03T09:02:41;101048.88;;;1.44;95.02
33506;BME280;19843;51.040;13.782;2023-03-03T09:05:10;101054.25;;;1.39;94.95
33506;BME280;19843;51.040;13.782;2023-03-03T09:07:39;101053.06;;;1.54;94.59
33506;BME280;19843;51.040;13.782;2023-03-03T09:10:08;101059.59;;;1.36;95.16
33506;BME280;19843;51.040;13.782;2023-03-03T09:12:40;101057.56;;;1.51;93.73
33506;BME280;19843;51.040;13.782;2023-03-03T09:15:16;101060.03;;;1.12;94.81
33506;BME280;19843;51.040;13.782;2023-03-03T09:17:45;101062.72;;;1.09;97.10
33506;BME280;19843;51.040;13.782;2023-03-03T09:20:29;101066.50;;;0.92;97.21
33506;BME280;19843;51.040;13.782;2023-03-03T09:22:58;101072.72;;;0.90;98.23
33506;BME280;19843;51.040;13.782;2023-03-03T09:25:30;101075.72;;;1.21;98.03
33506;BME280;19843;51.040;13.782;2023-03-03T09:27:59;101067.97;;;1.12;96.66
33506;BME280;19843;51.040;13.782;2023-03-03T09:30:36;101072.16;;;1.22;97.40
33506;BME280;19843;51.040;13.782;2023-03-03T09:33:20;101080.78;;;1.33;97.31
33506;BME280;19843;51.040;13.782;2023-03-03T09:35:51;101082.47;;;1.37;95.34
33506;BME280;19843;51.040;13.782;2023-03-03T09:38:28;101079.06;;;1.29;94.67
33506;BME280;19843;51.040;13.782;2023-03-03T09:41:12;101086.88;;;1.37;94.32
33506;BME280;19843;51.040;13.782;2023-03-03T09:43:49;101091.44;;;1.27;94.79
33506;BME280;19843;51.040;13.782;2023-03-03T09:46:30;101090.97;;;1.05;94.49
33506;BME280;19843;51.040;13.782;2023-03-03T09:49:11;101090.72;;;1.19;94.64
33506;BME280;19843;51.040;13.782;2023-03-03T09:51:59;101098.19;;;0.94;95.12
33506;BME280;19843;51.040;13.782;2023-03-03T09:54:45;101096.88;;;1.18;94.28
33506;BME280;19843;51.040;13.782;2023-03-03T09:57:20;101103.38;;;0.98;94.63
33506;BME280;19843;51.040;13.782;2023-03-03T10:00:19;101099.06;;;0.94;93.74
33506;BME280;19843;51.040;13.782;2023-03-03T10:02:56;101101.31;;;1.17;93.34
33506;BME280;19843;51.040;13.782;2023-03-03T10:05:33;101098.81;;;1.10;93.98
33506;BME280;19843;51.040;13.782;2023-03-03T10:08:21;101093.28;;;1.22;93.74
33506;BME280;19843;51.040;13.782;2023-03-03T10:11:01;101105.16;;;1.48;91.60
33506;BME280;19843;51.040;13.782;2023-03-03T10:13:40;101102.56;;;1.46;91.73
33506;BME280;19843;51.040;13.782;2023-03-03T10:16:21;101105.34;;;1.38;92.46
33506;BME280;19843;51.040;13.782;2023-03-03T10:19:00;101108.72;;;1.46;91.65
33506;BME280;19843;51.040;13.782;2023-03-03T10:21:34;101110.50;;;1.46;90.96
33506;BME280;19843;51.040;13.782;2023-03-03T10:24:16;101115.75;;;1.48;90.83
33506;BME280;19843;51.040;13.782;2023-03-03T10:27:02;101112.63;;;1.24;91.94
33506;BME280;19843;51.040;13.782;2023-03-03T10:29:43;101102.56;;;1.46;90.90
33506;BME280;19843;51.040;13.782;2023-03-03T10:32:26;101114.16;;;1.39;91.61
33506;BME280;19843;51.040;13.782;2023-03-03T10:35:21;101110.44;;;1.48;90.76
33506;BME280;19843;51.040;13.782;2023-03-03T10:38:09;101109.47;;;1.53;89.93
33506;BME280;19843;51.040;13.782;2023-03-03T10:40:45;101103.28;;;1.54;89.94
33506;BME280;19843;51.040;13.782;2023-03-03T10:43:48;101111.38;;;1.46;90.13
33506;BME280;19843;51.040;13.782;2023-03-03T10:46:30;101111.28;;;1.51;90.62
33506;BME280;19843;51.040;13.782;2023-03-03T10:49:19;101100.63;;;1.56;90.19
33506;BME280;19843;51.040;13.782;2023-03-03T10:52:05;101105.91;;;1.56;89.94
33506;BME280;19843;51.040;13.782;2023-03-03T10:54:52;101108.34;;;1.66;90.45
33506;BME280;19843;51.040;13.782;2023-03-03T10:57:32;101102.13;;;1.69;89.43
33506;BME280;19843;51.040;13.782;2023-03-03T11:00:13;101108.41;;;1.63;89.74
33506;BME280;19843;51.040;13.782;2023-03-03T11:02:54;101109.81;;;1.36;90.41
33506;BME280;19843;51.040;13.782;2023-03-03T11:05:34;101110.34;;;1.54;90.13
33506;BME280;19843;51.040;13.782;2023-03-03T11:08:09;101113.91;;;1.53;90.26
33506;BME280;19843;51.040;13.782;2023-03-03T11:10:49;101111.94;;;1.62;89.69
33506;BME280;19843;51.040;13.782;2023-03-03T11:13:26;101110.06;;;1.69;88.39
33506;BME280;19843;51.040;13.782;2023-03-03T11:16:13;101101.03;;;1.33;89.49
33506;BME280;19843;51.040;13.782;2023-03-03T11:18:53;101106.84;;;1.52;89.34
33506;BME280;19843;51.040;13.782;2023-03-03T11:21:31;101103.50;;;1.43;89.64
33506;BME280;19843;51.040;13.782;2023-03-03T11:24:13;101102.16;;;1.67;89.47
33506;BME280;19843;51.040;13.782;2023-03-03T11:27:05;101099.56;;;1.66;88.23
33506;BME280;19843;51.040;13.782;2023-03-03T11:29:49;101094.88;;;1.79;88.02
33506;BME280;19843;51.040;13.782;2023-03-03T11:32:25;101091.97;;;1.93;87.99
33506;BME280;19843;51.040;13.782;2023-03-03T11:35:06;101094.50;;;1.97;87.60
33506;BME280;19843;51.040;13.782;2023-03-03T11:37:45;101097.22;;;1.96;86.72
33506;BME280;19843;51.040;13.782;2023-03-03T11:40:18;101090.06;;;1.99;87.00
33506;BME280;19843;51.040;13.782;2023-03-03T11:42:57;101083.81;;;1.60;88.29
33506;BME280;19843;51.040;13.782;2023-03-03T11:45:34;101101.59;;;1.97;87.35
33506;BME280;19843;51.040;13.782;2023-03-03T11:48:09;101092.56;;;2.07;87.18
33506;BME280;19843;51.040;13.782;2023-03-03T11:50:42;101086.09;;;1.77;87.31
33506;BME280;19843;51.040;13.782;2023-03-03T11:53:24;101090.03;;;1.57;88.36
33506;BME280;19843;51.040;13.782;2023-03-03T11:55:56;101091.94;;;1.49;89.09
33506;BME280;19843;51.040;13.782;2023-03-03T11:58:28;101089.38;;;1.90;88.31
33506;BME280;19843;51.040;13.782;2023-03-03T12:01:07;101084.94;;;1.92;87.54
33506;BME280;19843;51.040;13.782;2023-03-03T12:03:41;101084.75;;;2.01;87.04
33506;BME280;19843;51.040;13.782;2023-03-03T12:06:20;101082.00;;;2.07;86.75
33506;BME280;19843;51.040;13.782;2023-03-03T12:09:02;101077.38;;;2.15;85.25
33506;BME280;19843;51.040;13.782;2023-03-03T12:11:44;101078.44;;;2.06;86.06
33506;BME280;19843;51.040;13.782;2023-03-03T12:14:24;101083.25;;;1.87;86.04
33506;BME280;19843;51.040;13.782;2023-03-03T12:16:57;101078.63;;;1.97;85.95
33506;BME280;19843;51.040;13.782;2023-03-03T12:19:31;101074.16;;;2.01;85.65
33506;BME280;19843;51.040;13.782;2023-03-03T12:25:06;101061.59;;;2.12;84.40
33506;BME280;19843;51.040;13.782;2023-03-03T12:27:43;101067.75;;;2.11;85.51
33506;BME280;19843;51.040;13.782;2023-03-03T12:30:21;101065.28;;;2.44;84.16
33506;BME280;19843;51.040;13.782;2023-03-03T12:33:04;101058.31;;;2.40;83.79
33506;BME280;19843;51.040;13.782;2023-03-03T12:35:41;101058.91;;;2.53;83.68
33506;BME280;19843;51.040;13.782;2023-03-03T12:38:20;101062.13;;;2.65;82.77
33506;BME280;19843;51.040;13.782;2023-03-03T12:40:57;101054.59;;;2.48;83.05
33506;BME280;19843;51.040;13.782;2023-03-03T12:43:37;101046.06;;;2.36;83.13
33506;BME280;19843;51.040;13.782;2023-03-03T12:46:17;101043.34;;;2.39;82.79
33506;BME280;19843;51.040;13.782;2023-03-03T12:48:47;101042.97;;;2.54;82.10
33506;BME280;19843;51.040;13.782;2023-03-03T12:51:23;101035.50;;;2.71;81.61
33506;BME280;19843;51.040;13.782;2023-03-03T12:54:20;101032.28;;;2.59;81.10
33506;BME280;19843;51.040;13.782;2023-03-03T12:56:57;101030.41;;;2.64;81.01
33506;BME280;19843;51.040;13.782;2023-03-03T12:59:35;101032.63;;;2.81;80.34
33506;BME280;19843;51.040;13.782;2023-03-03T13:02:25;101036.59;;;2.63;78.74
33506;BME280;19843;51.040;13.782;2023-03-03T13:05:01;101033.59;;;2.77;79.10
33506;BME280;19843;51.040;13.782;2023-03-03T13:07:40;101034.00;;;2.61;79.08
33506;BME280;19843;51.040;13.782;2023-03-03T13:10:17;101032.38;;;2.54;79.21
33506;BME280;19843;51.040;13.782;2023-03-03T13:12:52;101033.00;;;2.65;79.02